Harbert, Michigan
Current Conditions -  °F | °C
As of 1:55 AM on Monday 24 Nov 2014 (Local Time) from KMGC Reporting Station
Drizzle Drizzle  
Wind Chill: 50°   Ceiling: 700
Heat Index: 50°   Visibility: 10mi
Dew Point: 50°   Wind: 12mph
Humidity: 100%   Direction: 220°SW
Pressure: 29.09"   Gusts: NA
Location:  41.87°N, 86.63°W
Report Text: KMGC 240655Z AUTO 22010KT 10SM DZ OVC007 10/10 A2909 RMK AO2
Loading
Personal Weather Stations






























Interactive Weather Map New forecast layout! Learn more

10-Day Weather Forecast

Advertisements
Track Severe Weather on mobile